Time;durP1;ratioP1;P1;durP2;ratioP2;P2;SDS_P1;SDS_P2;PMS_P1;PMS_P2;Temp;Humidity;BMP_temperature;BMP_pressure;BME280_temperature;BME280_humidity;BME280_pressure;Samples;Min_cycle;Max_cycle;Signal;HPM_P1;HPM_P2
2023/04/29 00:01:35;;;;;;;35.70;16.80;;;;;;;;;;5022584;28;20425;-46
2023/04/29 00:04:01;;;;;;;27.83;16.40;;;;;;;;;;5017407;28;20412;-44
2023/04/29 00:06:29;;;;;;;34.17;17.20;;;;;;;;;;5015318;28;20411;-45
2023/04/29 00:08:55;;;;;;;34.17;18.10;;;;;;;;;;5021899;28;20949;-44
2023/04/29 00:11:21;;;;;;;29.17;17.27;;;;;;;;;;5023244;28;20470;-44
2023/04/29 00:13:47;;;;;;;32.73;17.30;;;;;;;;;;5020961;28;20439;-44
2023/04/29 00:16:13;;;;;;;32.40;15.87;;;;;;;;;;5022291;28;20406;-44
2023/04/29 00:18:38;;;;;;;31.67;17.80;;;;;;;;;;5018289;28;20447;-45
2023/04/29 00:21:04;;;;;;;31.73;17.27;;;;;;;;;;5016327;28;20415;-44
2023/04/29 00:23:31;;;;;;;38.40;19.70;;;;;;;;;;5021802;28;20431;-45
2023/04/29 00:25:57;;;;;;;39.63;20.10;;;;;;;;;;5026134;28;20413;-43
2023/04/29 00:28:24;;;;;;;37.03;19.80;;;;;;;;;;5024126;28;20560;-44
2023/04/29 00:30:50;;;;;;;33.17;19.27;;;;;;;;;;5015025;28;20408;-44
2023/04/29 00:33:16;;;;;;;39.33;19.60;;;;;;;;;;5018280;28;20421;-44
2023/04/29 00:35:42;;;;;;;34.90;20.17;;;;;;;;;;5018983;28;20431;-44
2023/04/29 00:38:08;;;;;;;37.40;20.47;;;;;;;;;;5020332;28;20423;-44
2023/04/29 00:40:34;;;;;;;34.73;17.67;;;;;;;;;;5021388;28;20409;-44
2023/04/29 00:43:00;;;;;;;39.07;19.77;;;;;;;;;;5022306;28;20951;-44
2023/04/29 00:45:26;;;;;;;32.67;19.43;;;;;;;;;;5017955;28;20453;-44
2023/04/29 00:47:52;;;;;;;39.37;22.40;;;;;;;;;;5011311;28;20495;-45
2023/04/29 00:50:18;;;;;;;38.43;21.27;;;;;;;;;;5024466;28;20558;-45
2023/04/29 00:52:44;;;;;;;38.80;21.23;;;;;;;;;;5021293;28;20410;-45
2023/04/29 00:55:11;;;;;;;37.93;19.77;;;;;;;;;;5024640;28;20421;-45
2023/04/29 00:57:38;;;;;;;32.27;18.57;;;;;;;;;;5017968;28;20407;-45
2023/04/29 01:00:04;;;;;;;34.93;20.27;;;;;;;;;;5019235;28;20423;-45
2023/04/29 01:02:30;;;;;;;37.50;21.00;;;;;;;;;;5014512;28;20414;-44
2023/04/29 01:04:56;;;;;;;35.70;19.73;;;;;;;;;;5021452;28;20763;-43
2023/04/29 01:07:22;;;;;;;39.73;20.50;;;;;;;;;;5023527;28;20456;-44
2023/04/29 01:09:53;;;;;;;38.40;21.10;;;;;;;;;;5016337;28;20479;-45
2023/04/29 01:12:20;;;;;;;41.60;22.30;;;;;;;;;;5019051;28;20441;-44
2023/04/29 01:14:48;;;;;;;50.80;20.87;;;;;;;;;;5019612;28;20418;-44
2023/04/29 01:17:17;;;;;;;41.03;21.70;;;;;;;;;;5014548;28;20411;-45
2023/04/29 01:19:52;;;;;;;50.70;21.87;;;;;;;;;;5021132;28;20639;-44
2023/04/29 01:22:19;;;;;;;51.10;22.40;;;;;;;;;;5023788;28;20410;-44
2023/04/29 01:24:45;;;;;;;37.27;20.43;;;;;;;;;;5022344;28;20411;-43
2023/04/29 01:27:23;;;;;;;45.27;21.50;;;;;;;;;;5020227;28;20413;-46
2023/04/29 01:29:49;;;;;;;58.23;25.90;;;;;;;;;;5010787;28;20522;-45
2023/04/29 01:32:22;;;;;;;50.80;21.83;;;;;;;;;;5014166;28;20920;-44
2023/04/29 01:34:57;;;;;;;52.23;23.27;;;;;;;;;;5017966;28;20416;-44
2023/04/29 01:37:26;;;;;;;48.00;23.07;;;;;;;;;;5022018;28;20402;-44
2023/04/29 01:39:57;;;;;;;58.03;23.97;;;;;;;;;;5018558;28;20520;-46
2023/04/29 01:42:34;;;;;;;70.93;27.63;;;;;;;;;;5016405;28;20514;-43
2023/04/29 01:45:00;;;;;;;54.93;26.23;;;;;;;;;;5016176;28;20482;-44
2023/04/29 01:47:26;;;;;;;54.37;25.90;;;;;;;;;;5010703;28;20509;-44
2023/04/29 01:49:52;;;;;;;57.40;29.23;;;;;;;;;;5019970;28;20466;-44
2023/04/29 01:52:18;;;;;;;61.77;27.67;;;;;;;;;;5019550;28;20416;-44
2023/04/29 01:54:45;;;;;;;65.17;29.30;;;;;;;;;;5014038;28;20423;-44
2023/04/29 01:57:11;;;;;;;65.93;29.93;;;;;;;;;;5018379;28;20894;-44
2023/04/29 01:59:37;;;;;;;71.57;29.97;;;;;;;;;;5016343;28;20458;-44
2023/04/29 02:02:03;;;;;;;66.13;27.83;;;;;;;;;;5031631;28;20922;-44
2023/04/29 02:04:32;;;;;;;79.77;28.60;;;;;;;;;;5031971;28;20545;-43
2023/04/29 02:06:58;;;;;;;79.17;33.50;;;;;;;;;;5031911;28;20441;-43
2023/04/29 02:09:24;;;;;;;74.93;32.20;;;;;;;;;;5020089;28;20510;-44
2023/04/29 02:11:50;;;;;;;77.60;32.10;;;;;;;;;;5011415;28;20434;-45
2023/04/29 02:14:16;;;;;;;90.03;32.13;;;;;;;;;;5012106;28;20493;-45
2023/04/29 02:16:45;;;;;;;77.57;29.43;;;;;;;;;;5012092;28;20399;-44
2023/04/29 02:19:11;;;;;;;72.57;30.03;;;;;;;;;;5011863;28;20458;-45
2023/04/29 02:21:38;;;;;;;82.93;31.57;;;;;;;;;;5012111;28;20436;-44
2023/04/29 02:24:05;;;;;;;81.07;32.77;;;;;;;;;;5011971;28;20403;-43
2023/04/29 02:26:32;;;;;;;76.10;27.90;;;;;;;;;;5012156;28;20493;-44
2023/04/29 02:28:58;;;;;;;79.47;29.63;;;;;;;;;;5011530;28;20447;-44
2023/04/29 02:31:24;;;;;;;86.50;28.60;;;;;;;;;;5012156;28;20438;-44
2023/04/29 02:33:50;;;;;;;77.50;29.13;;;;;;;;;;5012074;28;20399;-45
2023/04/29 02:36:17;;;;;;;71.67;27.10;;;;;;;;;;5011985;28;20407;-44
2023/04/29 02:38:43;;;;;;;91.70;31.43;;;;;;;;;;5009702;28;20419;-45
2023/04/29 02:41:09;;;;;;;82.90;30.57;;;;;;;;;;5011902;28;20545;-45
2023/04/29 02:43:35;;;;;;;81.03;28.20;;;;;;;;;;5011023;28;20539;-44
2023/04/29 02:46:01;;;;;;;76.17;30.70;;;;;;;;;;5014041;28;20403;-43
2023/04/29 02:48:27;;;;;;;72.93;28.10;;;;;;;;;;5015334;28;20469;-44
2023/04/29 02:50:53;;;;;;;73.83;29.30;;;;;;;;;;5015816;28;20442;-44
2023/04/29 02:53:19;;;;;;;73.43;29.67;;;;;;;;;;5015642;28;20407;-44
2023/04/29 02:55:46;;;;;;;77.77;31.80;;;;;;;;;;5015668;28;20406;-44
2023/04/29 02:58:12;;;;;;;94.20;31.63;;;;;;;;;;5015410;28;20836;-44
2023/04/29 03:00:40;;;;;;;74.73;29.67;;;;;;;;;;5015511;28;20410;-45
2023/04/29 03:03:06;;;;;;;78.83;32.70;;;;;;;;;;5015494;28;20544;-44
2023/04/29 03:05:31;;;;;;;79.13;28.50;;;;;;;;;;5015481;28;20869;-44
2023/04/29 03:07:57;;;;;;;77.47;29.23;;;;;;;;;;5013323;28;20454;-44
2023/04/29 03:10:23;;;;;;;78.53;28.47;;;;;;;;;;5014327;28;20586;-43
2023/04/29 03:12:49;;;;;;;71.67;27.73;;;;;;;;;;5015302;28;20420;-46
2023/04/29 03:15:15;;;;;;;65.30;25.97;;;;;;;;;;5015524;28;20411;-44
2023/04/29 03:17:41;;;;;;;59.70;22.97;;;;;;;;;;5015031;28;20517;-44
2023/04/29 03:20:09;;;;;;;47.07;21.67;;;;;;;;;;5014999;28;20411;-45
2023/04/29 03:22:35;;;;;;;56.13;21.57;;;;;;;;;;5015162;28;20412;-44
2023/04/29 03:25:01;;;;;;;43.90;19.97;;;;;;;;;;5015149;28;20405;-44
2023/04/29 03:27:27;;;;;;;49.50;21.30;;;;;;;;;;5015054;28;20505;-44
2023/04/29 03:29:53;;;;;;;43.50;19.47;;;;;;;;;;5015370;28;20474;-44
2023/04/29 03:32:19;;;;;;;55.37;22.87;;;;;;;;;;5015182;28;20901;-43
2023/04/29 03:34:45;;;;;;;55.30;18.90;;;;;;;;;;5015041;28;20509;-43
2023/04/29 03:37:11;;;;;;;49.40;19.50;;;;;;;;;;5012847;28;20427;-44
2023/04/29 03:39:37;;;;;;;48.73;18.10;;;;;;;;;;5014989;28;20447;-44
2023/04/29 03:42:03;;;;;;;40.60;17.50;;;;;;;;;;5014947;28;20395;-45
2023/04/29 03:44:29;;;;;;;33.73;16.63;;;;;;;;;;5014908;28;21138;-43
2023/04/29 03:46:55;;;;;;;39.27;17.93;;;;;;;;;;5014723;28;20477;-43
2023/04/29 03:49:22;;;;;;;46.73;18.20;;;;;;;;;;5014313;28;20462;-43
2023/04/29 03:51:48;;;;;;;46.13;19.60;;;;;;;;;;5014739;28;20409;-43
2023/04/29 03:54:14;;;;;;;39.27;18.73;;;;;;;;;;5014703;28;20492;-43
2023/04/29 03:56:40;;;;;;;42.90;20.60;;;;;;;;;;5013958;28;20410;-43
2023/04/29 03:59:06;;;;;;;45.07;20.90;;;;;;;;;;5014328;28;20423;-43
2023/04/29 04:01:32;;;;;;;54.33;21.63;;;;;;;;;;5014501;28;20453;-42
2023/04/29 04:03:58;;;;;;;58.83;23.90;;;;;;;;;;5014605;28;20427;-43
2023/04/29 04:06:25;;;;;;;52.60;20.17;;;;;;;;;;5014433;28;20818;-44
2023/04/29 04:08:51;;;;;;;49.07;21.57;;;;;;;;;;5013464;28;20596;-44
2023/04/29 04:11:16;;;;;;;50.37;19.97;;;;;;;;;;5014335;28;20406;-43
2023/04/29 04:13:43;;;;;;;44.03;19.10;;;;;;;;;;5014329;28;20403;-44
2023/04/29 04:16:12;;;;;;;38.97;19.03;;;;;;;;;;5014221;28;20954;-43
2023/04/29 04:18:38;;;;;;;43.23;19.20;;;;;;;;;;5013907;28;20877;-43
2023/04/29 04:21:08;;;;;;;48.37;20.57;;;;;;;;;;5014546;28;20402;-44
2023/04/29 04:23:34;;;;;;;46.63;20.43;;;;;;;;;;5013984;28;20407;-43
2023/04/29 04:26:00;;;;;;;40.80;20.10;;;;;;;;;;5014185;28;20411;-43
2023/04/29 04:28:26;;;;;;;41.70;20.07;;;;;;;;;;5013578;28;20468;-44
2023/04/29 04:30:52;;;;;;;51.93;20.23;;;;;;;;;;5013897;28;20498;-43
2023/04/29 04:33:18;;;;;;;44.10;19.13;;;;;;;;;;5014036;28;20441;-43
2023/04/29 04:35:44;;;;;;;36.97;19.60;;;;;;;;;;5013795;28;20442;-43
2023/04/29 04:38:10;;;;;;;43.43;21.60;;;;;;;;;;5012975;28;20460;-43
2023/04/29 04:40:36;;;;;;;38.83;18.60;;;;;;;;;;5012845;28;20427;-44
2023/04/29 04:43:02;;;;;;;40.63;21.47;;;;;;;;;;5013661;28;20411;-43
2023/04/29 04:45:29;;;;;;;35.07;18.40;;;;;;;;;;5013660;28;20407;-43
2023/04/29 04:47:55;;;;;;;46.63;18.60;;;;;;;;;;5013472;28;20441;-43
2023/04/29 04:50:21;;;;;;;42.40;20.47;;;;;;;;;;5013280;28;20977;-44
2023/04/29 04:52:47;;;;;;;41.37;19.10;;;;;;;;;;5013550;28;20434;-44
2023/04/29 04:55:12;;;;;;;35.07;17.13;;;;;;;;;;5013431;28;20458;-43
2023/04/29 04:57:38;;;;;;;43.70;21.10;;;;;;;;;;5018764;28;20798;-43
2023/04/29 05:00:05;;;;;;;40.10;20.40;;;;;;;;;;5013101;28;20774;-43
2023/04/29 05:02:31;;;;;;;36.60;18.10;;;;;;;;;;5016901;28;20502;-44
2023/04/29 05:04:57;;;;;;;35.17;17.97;;;;;;;;;;5019834;28;20427;-43
2023/04/29 05:07:23;;;;;;;35.53;17.63;;;;;;;;;;5016471;28;20424;-43
2023/04/29 05:09:49;;;;;;;39.13;18.93;;;;;;;;;;5026103;28;20473;-43
2023/04/29 05:12:15;;;;;;;42.70;18.87;;;;;;;;;;5014733;28;20899;-43
2023/04/29 05:14:41;;;;;;;45.37;19.63;;;;;;;;;;5020758;28;20420;-42
2023/04/29 05:17:08;;;;;;;42.83;20.70;;;;;;;;;;5024194;28;20774;-43
2023/04/29 05:19:34;;;;;;;42.10;20.00;;;;;;;;;;5020336;28;20887;-43
2023/04/29 05:22:00;;;;;;;38.97;19.70;;;;;;;;;;5013167;28;20505;-43
2023/04/29 05:24:28;;;;;;;42.57;19.90;;;;;;;;;;5013349;28;20420;-42
2023/04/29 05:26:54;;;;;;;49.60;21.80;;;;;;;;;;5021120;28;20432;-42
2023/04/29 05:29:20;;;;;;;41.97;21.53;;;;;;;;;;5021244;28;20464;-43
2023/04/29 05:31:46;;;;;;;46.07;21.00;;;;;;;;;;5019552;28;20411;-43
2023/04/29 05:34:12;;;;;;;46.53;22.47;;;;;;;;;;5019978;28;20412;-43
2023/04/29 05:36:38;;;;;;;43.80;20.93;;;;;;;;;;5017570;28;20410;-43
2023/04/29 05:39:04;;;;;;;47.23;21.70;;;;;;;;;;5006256;28;20531;-44
2023/04/29 05:41:30;;;;;;;44.60;22.30;;;;;;;;;;5025781;28;20623;-42
2023/04/29 05:43:56;;;;;;;46.23;20.90;;;;;;;;;;5019573;28;20775;-42
2023/04/29 05:46:22;;;;;;;42.13;21.93;;;;;;;;;;5020890;28;20410;-42
2023/04/29 05:48:48;;;;;;;40.50;22.00;;;;;;;;;;5019056;28;20496;-42
2023/04/29 05:51:14;;;;;;;40.60;21.47;;;;;;;;;;5018921;28;20417;-43
2023/04/29 05:53:40;;;;;;;40.07;20.60;;;;;;;;;;5016485;28;20421;-43
2023/04/29 05:56:07;;;;;;;37.37;21.30;;;;;;;;;;5019803;28;20412;-42
2023/04/29 05:58:33;;;;;;;41.57;21.93;;;;;;;;;;5023071;28;20448;-43
2023/04/29 06:01:00;;;;;;;42.43;22.57;;;;;;;;;;5016109;28;20926;-43
2023/04/29 06:03:26;;;;;;;41.67;20.63;;;;;;;;;;5016219;28;20796;-44
2023/04/29 06:05:52;;;;;;;41.30;21.00;;;;;;;;;;5019641;28;20429;-44
2023/04/29 06:08:18;;;;;;;45.83;21.90;;;;;;;;;;5019804;28;20423;-44
2023/04/29 06:10:45;;;;;;;43.70;20.27;;;;;;;;;;5016630;28;20461;-43
2023/04/29 06:13:11;;;;;;;49.07;24.50;;;;;;;;;;5023065;28;20414;-43
2023/04/29 06:15:37;;;;;;;39.13;19.97;;;;;;;;;;5020585;28;20414;-43
2023/04/29 06:18:03;;;;;;;43.00;23.00;;;;;;;;;;5012407;28;20540;-43
2023/04/29 06:20:29;;;;;;;43.67;20.90;;;;;;;;;;5011890;28;20788;-42
2023/04/29 06:22:55;;;;;;;55.27;27.60;;;;;;;;;;5017279;28;20412;-43
2023/04/29 06:25:21;;;;;;;38.23;20.93;;;;;;;;;;5015840;28;20770;-42
2023/04/29 06:27:48;;;;;;;40.33;21.60;;;;;;;;;;5020690;28;21033;-43
2023/04/29 06:30:14;;;;;;;40.40;20.27;;;;;;;;;;5019050;28;20612;-44
2023/04/29 06:32:40;;;;;;;40.63;21.30;;;;;;;;;;5013839;28;20426;-45
2023/04/29 06:35:06;;;;;;;40.10;21.20;;;;;;;;;;5017601;28;20413;-44
2023/04/29 06:37:32;;;;;;;38.87;20.07;;;;;;;;;;5022758;28;20505;-44
2023/04/29 06:39:58;;;;;;;35.70;20.20;;;;;;;;;;5015095;28;21135;-43
2023/04/29 06:42:24;;;;;;;34.23;19.07;;;;;;;;;;5019109;28;20533;-43
2023/04/29 06:44:50;;;;;;;34.60;20.20;;;;;;;;;;5019725;28;20403;-42
2023/04/29 06:47:16;;;;;;;43.30;22.13;;;;;;;;;;5015490;28;20931;-42
2023/04/29 06:49:42;;;;;;;34.30;19.67;;;;;;;;;;5013675;28;20474;-43
2023/04/29 06:52:08;;;;;;;38.70;21.60;;;;;;;;;;5019703;28;20499;-42
2023/04/29 06:54:34;;;;;;;37.03;21.10;;;;;;;;;;5023300;28;20414;-42
2023/04/29 06:57:01;;;;;;;38.20;19.67;;;;;;;;;;5015867;28;20930;-43
2023/04/29 06:59:27;;;;;;;39.40;18.70;;;;;;;;;;5015538;28;20436;-43
2023/04/29 07:01:53;;;;;;;42.30;22.67;;;;;;;;;;5018695;28;20494;-43
2023/04/29 07:04:19;;;;;;;31.03;18.83;;;;;;;;;;5013814;28;20506;-43
2023/04/29 07:06:45;;;;;;;34.70;19.83;;;;;;;;;;5020020;28;20462;-44
2023/04/29 07:09:13;;;;;;;34.23;18.70;;;;;;;;;;5021885;28;20473;-43
2023/04/29 07:11:39;;;;;;;36.53;22.07;;;;;;;;;;5017829;28;20419;-45
2023/04/29 07:14:06;;;;;;;37.33;20.23;;;;;;;;;;5022917;28;20500;-43
2023/04/29 07:16:32;;;;;;;42.00;21.10;;;;;;;;;;5022838;28;20409;-43
2023/04/29 07:18:58;;;;;;;42.10;22.00;;;;;;;;;;5030901;28;20534;-43
2023/04/29 07:21:24;;;;;;;43.13;21.40;;;;;;;;;;5013628;28;20831;-43
2023/04/29 07:23:50;;;;;;;38.93;19.30;;;;;;;;;;5011374;28;20500;-43
2023/04/29 07:26:16;;;;;;;35.23;20.67;;;;;;;;;;5011245;28;20434;-43
2023/04/29 07:28:42;;;;;;;38.77;21.40;;;;;;;;;;5012022;28;20966;-43
2023/04/29 07:31:09;;;;;;;38.10;22.40;;;;;;;;;;5022588;28;20417;-43
2023/04/29 07:33:35;;;;;;;41.20;20.97;;;;;;;;;;5019896;28;20420;-42
2023/04/29 07:36:02;;;;;;;42.87;20.60;;;;;;;;;;5023631;28;20409;-42
2023/04/29 07:38:28;;;;;;;44.93;24.40;;;;;;;;;;5022832;28;20456;-45
2023/04/29 07:40:55;;;;;;;41.40;22.90;;;;;;;;;;5022796;28;20922;-43
2023/04/29 07:43:21;;;;;;;49.57;22.80;;;;;;;;;;5021810;28;20434;-43
2023/04/29 07:45:47;;;;;;;46.97;23.60;;;;;;;;;;5024813;28;20420;-43
2023/04/29 07:48:13;;;;;;;41.70;23.53;;;;;;;;;;5021137;28;20444;-42
2023/04/29 07:50:39;;;;;;;42.97;23.93;;;;;;;;;;5013812;28;20496;-44
2023/04/29 07:53:05;;;;;;;48.80;24.23;;;;;;;;;;5019787;28;20503;-43
2023/04/29 07:55:31;;;;;;;41.57;21.93;;;;;;;;;;5017871;28;20922;-43
2023/04/29 07:58:00;;;;;;;45.67;24.63;;;;;;;;;;5023785;28;20473;-43
2023/04/29 08:00:27;;;;;;;48.67;23.97;;;;;;;;;;5022287;28;20426;-43
2023/04/29 08:02:53;;;;;;;41.60;22.90;;;;;;;;;;5021640;28;20429;-43
2023/04/29 08:05:20;;;;;;;45.47;23.93;;;;;;;;;;5015686;28;20422;-43
2023/04/29 08:07:49;;;;;;;44.90;24.03;;;;;;;;;;5010272;28;20416;-43
2023/04/29 08:10:15;;;;;;;43.93;23.43;;;;;;;;;;5023521;28;20464;-43
2023/04/29 08:12:41;;;;;;;49.70;24.93;;;;;;;;;;5019812;28;20423;-43
2023/04/29 08:15:08;;;;;;;47.63;22.17;;;;;;;;;;5025174;28;20765;-44
2023/04/29 08:17:34;;;;;;;46.00;24.33;;;;;;;;;;5017940;28;20494;-44
2023/04/29 08:19:59;;;;;;;49.73;25.97;;;;;;;;;;5017728;28;20522;-43
2023/04/29 08:22:26;;;;;;;53.17;26.37;;;;;;;;;;5009846;28;20415;-43
2023/04/29 08:24:52;;;;;;;47.30;25.47;;;;;;;;;;5027730;28;20448;-43
2023/04/29 08:27:20;;;;;;;52.83;25.70;;;;;;;;;;5021640;28;20468;-43
2023/04/29 08:29:46;;;;;;;51.23;27.77;;;;;;;;;;5015943;28;20471;-42
2023/04/29 08:32:12;;;;;;;50.73;28.50;;;;;;;;;;5020526;28;20548;-43
2023/04/29 08:34:38;;;;;;;46.37;24.47;;;;;;;;;;5018317;28;20404;-42
2023/04/29 08:37:04;;;;;;;51.73;26.90;;;;;;;;;;5022178;28;20412;-43
2023/04/29 08:39:30;;;;;;;55.53;26.03;;;;;;;;;;5020222;28;20434;-42
2023/04/29 08:41:57;;;;;;;49.47;25.80;;;;;;;;;;5018472;28;20438;-43
2023/04/29 08:44:25;;;;;;;55.20;26.77;;;;;;;;;;5020510;28;20425;-43
2023/04/29 08:46:52;;;;;;;54.10;24.87;;;;;;;;;;5012898;28;20423;-43
2023/04/29 08:49:18;;;;;;;56.70;26.37;;;;;;;;;;5015028;28;20897;-44
2023/04/29 08:51:44;;;;;;;46.23;23.90;;;;;;;;;;5018317;28;20942;-43
2023/04/29 08:54:10;;;;;;;55.73;25.93;;;;;;;;;;5024873;28;20873;-44
2023/04/29 08:56:37;;;;;;;46.87;24.27;;;;;;;;;;5019540;28;20922;-43
2023/04/29 08:59:03;;;;;;;58.10;27.00;;;;;;;;;;5020470;28;20439;-44
2023/04/29 09:01:29;;;;;;;50.10;25.27;;;;;;;;;;5016359;28;20818;-43
2023/04/29 09:03:58;;;;;;;61.43;27.53;;;;;;;;;;5009499;28;20454;-44
2023/04/29 09:06:24;;;;;;;55.37;25.77;;;;;;;;;;5023618;28;20510;-43
2023/04/29 09:08:50;;;;;;;57.13;27.73;;;;;;;;;;5018608;28;20502;-43
2023/04/29 09:11:17;;;;;;;53.77;27.57;;;;;;;;;;5020141;28;20845;-43
2023/04/29 09:13:43;;;;;;;60.53;25.40;;;;;;;;;;5018045;28;20423;-43
2023/04/29 09:16:12;;;;;;;54.13;28.03;;;;;;;;;;5032746;28;20485;-43
2023/04/29 09:18:42;;;;;;;53.07;27.00;;;;;;;;;;5032420;28;20450;-43
2023/04/29 09:21:27;;;;;;;49.53;27.10;;;;;;;;;;5032298;28;20773;-43
2023/04/29 09:23:54;;;;;;;56.43;23.83;;;;;;;;;;5032328;28;20410;-43
2023/04/29 09:26:21;;;;;;;46.03;24.83;;;;;;;;;;5032401;28;20480;-42
2023/04/29 09:28:48;;;;;;;56.50;26.33;;;;;;;;;;5023886;28;20459;-44
2023/04/29 09:31:14;;;;;;;47.00;26.13;;;;;;;;;;5012762;28;20490;-44
2023/04/29 09:33:54;;;;;;;52.87;26.77;;;;;;;;;;5012671;28;20400;-43
2023/04/29 09:36:36;;;;;;;62.60;26.90;;;;;;;;;;5012695;28;20407;-43
2023/04/29 09:39:04;;;;;;;52.60;26.97;;;;;;;;;;5012324;28;20423;-43
2023/04/29 09:41:30;;;;;;;47.47;24.93;;;;;;;;;;5011698;28;20993;-43
2023/04/29 09:44:09;;;;;;;56.87;26.50;;;;;;;;;;5011703;28;20407;-43
2023/04/29 09:46:35;;;;;;;53.83;27.03;;;;;;;;;;5012770;28;20457;-43
2023/04/29 09:49:03;;;;;;;53.23;25.47;;;;;;;;;;5012132;28;20962;-43
2023/04/29 09:51:31;;;;;;;56.63;27.50;;;;;;;;;;5012627;28;20395;-44
2023/04/29 09:53:57;;;;;;;52.47;27.30;;;;;;;;;;5011922;28;20404;-44
2023/04/29 09:56:23;;;;;;;52.53;26.80;;;;;;;;;;5012363;28;20403;-43
2023/04/29 09:58:49;;;;;;;57.27;26.97;;;;;;;;;;5011845;28;20506;-44
2023/04/29 10:01:18;;;;;;;42.80;25.47;;;;;;;;;;5012307;28;20422;-43
2023/04/29 10:03:44;;;;;;;48.53;24.03;;;;;;;;;;5012309;28;20411;-43
2023/04/29 10:06:10;;;;;;;54.23;24.50;;;;;;;;;;5012491;28;20400;-43
2023/04/29 10:08:37;;;;;;;48.03;24.23;;;;;;;;;;5012001;28;20487;-43
2023/04/29 10:11:04;;;;;;;42.60;24.07;;;;;;;;;;5011299;28;20437;-42
2023/04/29 10:13:31;;;;;;;52.27;23.00;;;;;;;;;;5011930;28;20413;-44
2023/04/29 10:16:08;;;;;;;46.93;24.53;;;;;;;;;;5012136;28;20396;-43
2023/04/29 10:18:38;;;;;;;48.93;24.73;;;;;;;;;;5011810;28;20445;-43
2023/04/29 10:21:07;;;;;;;39.27;23.93;;;;;;;;;;5012117;28;20462;-43
2023/04/29 10:23:33;;;;;;;46.47;25.80;;;;;;;;;;5012704;28;20402;-44
2023/04/29 10:26:01;;;;;;;48.57;24.50;;;;;;;;;;5011834;28;20456;-44
2023/04/29 10:28:31;;;;;;;44.27;25.20;;;;;;;;;;5011445;28;20431;-43
2023/04/29 10:30:57;;;;;;;43.00;22.57;;;;;;;;;;5012072;28;20412;-43
2023/04/29 10:33:26;;;;;;;42.37;22.30;;;;;;;;;;5011960;28;20839;-43
2023/04/29 10:35:52;;;;;;;42.00;24.63;;;;;;;;;;5011989;28;20413;-45
2023/04/29 10:38:49;;;;;;;38.73;23.33;;;;;;;;;;5011558;28;20458;-43
2023/04/29 10:41:24;;;;;;;42.47;22.00;;;;;;;;;;5001649;28;20869;-44
2023/04/29 10:43:51;;;;;;;41.53;21.67;;;;;;;;;;5011197;28;20430;-43
2023/04/29 10:46:17;;;;;;;34.03;21.23;;;;;;;;;;5011777;28;20433;-44
2023/04/29 10:48:43;;;;;;;35.30;21.40;;;;;;;;;;5011428;28;20468;-43
2023/04/29 10:51:09;;;;;;;30.33;20.03;;;;;;;;;;5011782;28;20410;-43
2023/04/29 10:53:35;;;;;;;34.03;20.60;;;;;;;;;;5012004;28;20994;-43
2023/04/29 10:56:12;;;;;;;39.83;22.97;;;;;;;;;;5011554;28;20478;-44
2023/04/29 10:58:42;;;;;;;40.13;23.90;;;;;;;;;;5011450;28;20418;-43
2023/04/29 11:01:13;;;;;;;33.97;22.90;;;;;;;;;;5011766;28;20406;-43
2023/04/29 11:03:47;;;;;;;35.93;21.13;;;;;;;;;;5011613;28;20929;-43
2023/04/29 11:06:13;;;;;;;32.53;21.10;;;;;;;;;;5012523;28;20403;-43
2023/04/29 11:08:39;;;;;;;32.13;20.43;;;;;;;;;;5015035;28;20462;-43
2023/04/29 11:11:05;;;;;;;28.97;20.73;;;;;;;;;;5012946;28;20427;-43
2023/04/29 11:13:33;;;;;;;31.97;21.37;;;;;;;;;;5015337;28;20461;-43
2023/04/29 11:16:06;;;;;;;30.03;18.87;;;;;;;;;;5015191;28;20399;-43
2023/04/29 11:18:33;;;;;;;31.50;18.97;;;;;;;;;;5014855;28;20434;-43
2023/04/29 11:21:05;;;;;;;28.03;19.50;;;;;;;;;;5015133;28;20399;-45
2023/04/29 11:23:35;;;;;;;32.93;17.60;;;;;;;;;;5015201;28;20403;-44
2023/04/29 11:26:01;;;;;;;27.30;18.70;;;;;;;;;;5015116;28;20394;-43
2023/04/29 11:28:27;;;;;;;29.87;17.33;;;;;;;;;;5014482;28;20427;-43
2023/04/29 11:30:54;;;;;;;26.07;18.20;;;;;;;;;;5015075;28;20382;-43
2023/04/29 11:33:20;;;;;;;28.47;17.40;;;;;;;;;;5015116;28;20403;-43
2023/04/29 11:35:46;;;;;;;28.30;17.97;;;;;;;;;;5014973;28;20408;-45
2023/04/29 11:38:12;;;;;;;28.53;18.90;;;;;;;;;;5014592;28;21034;-43
2023/04/29 11:40:50;;;;;;;29.10;18.07;;;;;;;;;;5012890;28;20432;-43
2023/04/29 11:43:20;;;;;;;26.33;18.50;;;;;;;;;;5014550;28;20407;-43
2023/04/29 11:45:46;;;;;;;31.57;18.20;;;;;;;;;;5014918;28;20438;-43
2023/04/29 11:48:18;;;;;;;23.70;17.83;;;;;;;;;;5014422;28;20523;-43
2023/04/29 11:50:49;;;;;;;29.27;16.77;;;;;;;;;;5015095;28;20541;-43
2023/04/29 11:53:15;;;;;;;25.90;16.80;;;;;;;;;;5014681;28;20403;-43
2023/04/29 11:55:42;;;;;;;23.53;16.60;;;;;;;;;;5014414;28;20896;-43
2023/04/29 11:58:08;;;;;;;21.60;15.83;;;;;;;;;;5014183;28;20402;-44
2023/04/29 12:00:35;;;;;;;29.17;16.87;;;;;;;;;;5015029;28;20377;-44
2023/04/29 12:03:01;;;;;;;25.43;15.80;;;;;;;;;;5014534;28;20465;-45
2023/04/29 12:05:27;;;;;;;22.90;14.90;;;;;;;;;;5014404;28;20377;-46
2023/04/29 12:07:54;;;;;;;27.87;16.80;;;;;;;;;;5014231;28;20381;-45
2023/04/29 12:10:20;;;;;;;19.10;15.60;;;;;;;;;;5012843;28;20466;-46
2023/04/29 12:12:47;;;;;;;15.97;14.27;;;;;;;;;;5012446;28;20436;-45
2023/04/29 12:15:13;;;;;;;23.50;14.70;;;;;;;;;;5014251;28;20886;-46
2023/04/29 12:17:40;;;;;;;18.60;13.73;;;;;;;;;;5013629;28;20427;-45
2023/04/29 12:20:10;;;;;;;17.97;13.70;;;;;;;;;;5013825;28;20381;-44
2023/04/29 12:22:35;;;;;;;19.93;14.13;;;;;;;;;;5014107;28;20489;-45
2023/04/29 12:25:05;;;;;;;17.77;13.40;;;;;;;;;;5013998;28;20443;-42
2023/04/29 12:27:32;;;;;;;19.60;12.90;;;;;;;;;;5014117;28;20405;-42
2023/04/29 12:29:58;;;;;;;19.33;13.83;;;;;;;;;;5013608;28;20826;-43
2023/04/29 12:32:25;;;;;;;21.00;13.87;;;;;;;;;;5013863;28;20394;-45
2023/04/29 12:34:51;;;;;;;21.17;14.30;;;;;;;;;;5013830;28;20442;-43
2023/04/29 12:37:17;;;;;;;16.67;13.53;;;;;;;;;;5011843;28;20899;-43
2023/04/29 12:39:44;;;;;;;21.30;14.10;;;;;;;;;;5013594;28;20414;-43
2023/04/29 12:42:16;;;;;;;18.27;13.90;;;;;;;;;;5013884;28;20429;-45
2023/04/29 12:44:48;;;;;;;19.43;14.90;;;;;;;;;;5013690;28;20378;-47
2023/04/29 12:47:15;;;;;;;17.37;13.10;;;;;;;;;;5012656;28;20907;-46
2023/04/29 12:49:42;;;;;;;23.03;14.47;;;;;;;;;;5013127;28;20469;-46
2023/04/29 12:52:09;;;;;;;15.70;12.57;;;;;;;;;;5013540;28;20465;-44
2023/04/29 12:54:40;;;;;;;14.90;11.30;;;;;;;;;;5013474;28;20429;-44
2023/04/29 12:57:07;;;;;;;17.03;13.27;;;;;;;;;;5013411;28;20395;-44
2023/04/29 12:59:33;;;;;;;14.47;12.50;;;;;;;;;;5013130;28;20869;-46
2023/04/29 13:01:59;;;;;;;17.10;13.27;;;;;;;;;;5013351;28;20761;-45
2023/04/29 13:04:25;;;;;;;16.97;10.50;;;;;;;;;;5013162;28;20406;-45
2023/04/29 13:06:58;;;;;;;15.93;12.30;;;;;;;;;;5012285;28;20490;-45
2023/04/29 13:09:24;;;;;;;15.87;12.67;;;;;;;;;;5011841;28;20466;-43
2023/04/29 13:11:50;;;;;;;14.97;12.80;;;;;;;;;;5013288;28;20821;-43
2023/04/29 13:14:17;;;;;;;19.20;11.87;;;;;;;;;;5013053;28;20940;-43
2023/04/29 13:16:43;;;;;;;17.80;12.37;;;;;;;;;;5013503;28;20390;-44
2023/04/29 13:19:09;;;;;;;15.63;12.40;;;;;;;;;;5012745;28;20477;-43
2023/04/29 13:21:35;;;;;;;13.33;9.83;;;;;;;;;;5013121;28;20494;-43
2023/04/29 13:24:01;;;;;;;14.50;11.73;;;;;;;;;;5011713;28;20411;-43
2023/04/29 13:26:28;;;;;;;16.57;12.90;;;;;;;;;;5013028;28;20763;-43
2023/04/29 13:28:53;;;;;;;17.13;11.90;;;;;;;;;;5011718;28;20452;-44
2023/04/29 13:31:19;;;;;;;14.20;11.40;;;;;;;;;;5012841;28;20868;-43
2023/04/29 13:33:47;;;;;;;14.10;11.90;;;;;;;;;;5012829;28;20404;-43
2023/04/29 13:36:13;;;;;;;15.37;11.93;;;;;;;;;;5012659;28;20827;-43
2023/04/29 13:38:39;;;;;;;15.87;10.73;;;;;;;;;;5010484;28;20451;-43
2023/04/29 13:41:05;;;;;;;16.10;11.47;;;;;;;;;;5011836;28;20467;-44
2023/04/29 13:43:31;;;;;;;12.00;10.43;;;;;;;;;;5012608;28;20390;-44
2023/04/29 13:45:57;;;;;;;12.27;10.10;;;;;;;;;;5012492;28;20730;-43
2023/04/29 13:48:23;;;;;;;15.27;9.80;;;;;;;;;;5012071;28;20423;-43
2023/04/29 13:50:49;;;;;;;15.13;11.83;;;;;;;;;;5012676;28;20481;-43
2023/04/29 13:53:16;;;;;;;15.67;10.80;;;;;;;;;;5012531;28;20460;-43
2023/04/29 13:55:42;;;;;;;11.20;9.70;;;;;;;;;;5012496;28;20440;-43
2023/04/29 13:58:08;;;;;;;11.83;9.73;;;;;;;;;;5012059;28;20507;-43
2023/04/29 14:00:34;;;;;;;13.17;9.33;;;;;;;;;;5012166;28;20505;-43
2023/04/29 14:03:00;;;;;;;12.40;10.10;;;;;;;;;;5012409;28;20408;-43
2023/04/29 14:05:26;;;;;;;13.80;9.67;;;;;;;;;;5012405;28;20383;-43
2023/04/29 14:07:52;;;;;;;20.03;11.87;;;;;;;;;;5012144;28;20759;-43
2023/04/29 14:10:18;;;;;;;12.33;8.23;;;;;;;;;;5010128;28;20496;-43
2023/04/29 14:12:44;;;;;;;15.83;8.87;;;;;;;;;;5011563;28;20518;-43
2023/04/29 14:15:10;;;;;;;14.70;9.37;;;;;;;;;;5012146;28;20883;-44
2023/04/29 14:17:36;;;;;;;11.87;9.20;;;;;;;;;;5011993;28;20458;-43